sensor_id;sensor_type;location;lat;lon;timestamp;pressure;altitude;pressure_sealevel;temperature;humidity
54172;BME280;40076;52.354;4.970;2022-10-16T00:01:23;100855.13;;;14.42;91.80
54172;BME280;40076;52.354;4.970;2022-10-16T00:03:49;100857.84;;;14.42;91.67
54172;BME280;40076;52.354;4.970;2022-10-16T00:06:19;100864.88;;;14.43;91.37
54172;BME280;40076;52.354;4.970;2022-10-16T00:08:45;100857.44;;;14.40;91.05
54172;BME280;40076;52.354;4.970;2022-10-16T00:11:15;100854.38;;;14.42;90.79
54172;BME280;40076;52.354;4.970;2022-10-16T00:13:42;100846.97;;;14.42;90.65
54172;BME280;40076;52.354;4.970;2022-10-16T00:16:08;100848.94;;;14.42;90.60
54172;BME280;40076;52.354;4.970;2022-10-16T00:18:34;100854.00;;;14.43;90.27
54172;BME280;40076;52.354;4.970;2022-10-16T00:21:12;100856.28;;;14.41;90.25
54172;BME280;40076;52.354;4.970;2022-10-16T00:23:38;100855.03;;;14.39;90.19
54172;BME280;40076;52.354;4.970;2022-10-16T00:26:08;100864.78;;;14.40;89.95
54172;BME280;40076;52.354;4.970;2022-10-16T00:28:35;100864.78;;;14.40;89.72
54172;BME280;40076;52.354;4.970;2022-10-16T00:31:05;100862.41;;;14.38;89.71
54172;BME280;40076;52.354;4.970;2022-10-16T00:33:31;100865.13;;;14.38;89.21
54172;BME280;40076;52.354;4.970;2022-10-16T00:36:00;100858.06;;;14.37;89.37
54172;BME280;40076;52.354;4.970;2022-10-16T00:38:26;100862.72;;;14.37;88.84
54172;BME280;40076;52.354;4.970;2022-10-16T00:40:51;100847.53;;;14.36;88.75
54172;BME280;40076;52.354;4.970;2022-10-16T00:43:38;100854.56;;;14.37;88.86
54172;BME280;40076;52.354;4.970;2022-10-16T00:46:16;100852.53;;;14.34;88.33
54172;BME280;40076;52.354;4.970;2022-10-16T00:48:47;100852.19;;;14.35;88.31
54172;BME280;40076;52.354;4.970;2022-10-16T00:51:13;100845.94;;;14.35;88.60
54172;BME280;40076;52.354;4.970;2022-10-16T00:53:39;100850.16;;;14.32;87.99
54172;BME280;40076;52.354;4.970;2022-10-16T00:56:05;100851.28;;;14.31;88.08
54172;BME280;40076;52.354;4.970;2022-10-16T00:58:30;100850.84;;;14.29;88.00
54172;BME280;40076;52.354;4.970;2022-10-16T01:00:56;100861.72;;;14.29;87.97
54172;BME280;40076;52.354;4.970;2022-10-16T01:06:21;100852.66;;;14.25;87.64
54172;BME280;40076;52.354;4.970;2022-10-16T01:11:33;100867.47;;;14.27;88.20
54172;BME280;40076;52.354;4.970;2022-10-16T01:14:05;100866.69;;;14.27;88.21
54172;BME280;40076;52.354;4.970;2022-10-16T01:16:55;100861.25;;;14.27;88.29
54172;BME280;40076;52.354;4.970;2022-10-16T01:19:44;100869.41;;;14.27;88.14
54172;BME280;40076;52.354;4.970;2022-10-16T01:22:18;100866.25;;;14.25;88.35
54172;BME280;40076;52.354;4.970;2022-10-16T01:24:48;100867.38;;;14.24;88.22
54172;BME280;40076;52.354;4.970;2022-10-16T01:27:22;100872.81;;;14.24;88.13
54172;BME280;40076;52.354;4.970;2022-10-16T01:29:53;100872.81;;;14.24;88.18
54172;BME280;40076;52.354;4.970;2022-10-16T01:32:56;100861.16;;;14.23;88.10
54172;BME280;40076;52.354;4.970;2022-10-16T01:35:32;100858.09;;;14.25;88.15
54172;BME280;40076;52.354;4.970;2022-10-16T01:40:34;100854.25;;;14.26;88.38
54172;BME280;40076;52.354;4.970;2022-10-16T01:43:03;100861.63;;;14.25;88.37
54172;BME280;40076;52.354;4.970;2022-10-16T01:45:31;100860.81;;;14.25;88.60
54172;BME280;40076;52.354;4.970;2022-10-16T01:48:00;100867.84;;;14.26;88.67
54172;BME280;40076;52.354;4.970;2022-10-16T01:50:26;100865.94;;;14.26;88.69
54172;BME280;40076;52.354;4.970;2022-10-16T01:52:53;100866.25;;;14.25;89.11
54172;BME280;40076;52.354;4.970;2022-10-16T01:55:28;100872.50;;;14.25;89.30
54172;BME280;40076;52.354;4.970;2022-10-16T01:57:57;100868.19;;;14.24;89.54
54172;BME280;40076;52.354;4.970;2022-10-16T02:00:26;100870.91;;;14.24;89.74
54172;BME280;40076;52.354;4.970;2022-10-16T02:02:53;100873.63;;;14.24;89.92
54172;BME280;40076;52.354;4.970;2022-10-16T02:05:24;100875.88;;;14.22;90.41
54172;BME280;40076;52.354;4.970;2022-10-16T02:07:51;100873.63;;;14.24;90.37
54172;BME280;40076;52.354;4.970;2022-10-16T02:10:17;100877.00;;;14.21;90.99
54172;BME280;40076;52.354;4.970;2022-10-16T02:12:48;100877.00;;;14.21;91.31
54172;BME280;40076;52.354;4.970;2022-10-16T02:15:15;100885.97;;;14.22;91.44
54172;BME280;40076;52.354;4.970;2022-10-16T02:17:41;100886.28;;;14.20;91.73
54172;BME280;40076;52.354;4.970;2022-10-16T02:20:06;100885.50;;;14.20;92.06
54172;BME280;40076;52.354;4.970;2022-10-16T02:22:52;100892.06;;;14.19;92.60
54172;BME280;40076;52.354;4.970;2022-10-16T02:25:30;100890.03;;;14.16;93.21
54172;BME280;40076;52.354;4.970;2022-10-16T02:28:09;100898.19;;;14.16;93.40
54172;BME280;40076;52.354;4.970;2022-10-16T02:30:57;100899.66;;;14.13;94.11
54172;BME280;40076;52.354;4.970;2022-10-16T02:33:25;100897.97;;;14.09;94.71
54172;BME280;40076;52.354;4.970;2022-10-16T02:35:52;100890.16;;;14.07;95.13
54172;BME280;40076;52.354;4.970;2022-10-16T02:38:19;100896.06;;;14.09;95.09
54172;BME280;40076;52.354;4.970;2022-10-16T02:40:45;100901.50;;;14.09;95.69
54172;BME280;40076;52.354;4.970;2022-10-16T02:43:11;100906.13;;;14.09;96.01
54172;BME280;40076;52.354;4.970;2022-10-16T02:45:36;100898.31;;;14.07;96.00
54172;BME280;40076;52.354;4.970;2022-10-16T02:48:02;100905.66;;;14.07;96.08
54172;BME280;40076;52.354;4.970;2022-10-16T02:50:27;100910.63;;;14.05;96.54
54172;BME280;40076;52.354;4.970;2022-10-16T02:52:52;100911.00;;;14.03;96.50
54172;BME280;40076;52.354;4.970;2022-10-16T02:55:18;100904.78;;;14.03;96.73
54172;BME280;40076;52.354;4.970;2022-10-16T02:57:43;100915.97;;;14.01;97.04
54172;BME280;40076;52.354;4.970;2022-10-16T03:00:10;100909.75;;;14.01;97.14
54172;BME280;40076;52.354;4.970;2022-10-16T03:02:36;100921.75;;;14.00;97.23
54172;BME280;40076;52.354;4.970;2022-10-16T03:05:02;100924.00;;;13.98;97.29
54172;BME280;40076;52.354;4.970;2022-10-16T03:07:27;100915.84;;;13.98;97.39
54172;BME280;40076;52.354;4.970;2022-10-16T03:09:52;100908.81;;;13.97;97.43
54172;BME280;40076;52.354;4.970;2022-10-16T03:12:17;100913.03;;;13.94;97.76
54172;BME280;40076;52.354;4.970;2022-10-16T03:14:43;100916.88;;;13.93;97.89
54172;BME280;40076;52.354;4.970;2022-10-16T03:17:08;100910.19;;;13.90;98.14
54172;BME280;40076;52.354;4.970;2022-10-16T03:19:33;100917.88;;;13.88;98.12
54172;BME280;40076;52.354;4.970;2022-10-16T03:21:59;100908.97;;;13.88;98.21
54172;BME280;40076;52.354;4.970;2022-10-16T03:24:25;100912.81;;;13.87;98.42
54172;BME280;40076;52.354;4.970;2022-10-16T03:26:50;100919.69;;;13.84;98.61
54172;BME280;40076;52.354;4.970;2022-10-16T03:29:15;100927.50;;;13.86;98.59
54172;BME280;40076;52.354;4.970;2022-10-16T03:31:41;100923.06;;;13.81;99.00
54172;BME280;40076;52.354;4.970;2022-10-16T03:34:06;100921.53;;;13.80;99.07
54172;BME280;40076;52.354;4.970;2022-10-16T03:36:31;100918.00;;;13.80;99.12
54172;BME280;40076;52.354;4.970;2022-10-16T03:38:56;100926.50;;;13.78;99.20
54172;BME280;40076;52.354;4.970;2022-10-16T03:41:22;100923.31;;;13.76;99.36
54172;BME280;40076;52.354;4.970;2022-10-16T03:43:47;100931.44;;;13.76;99.69
54172;BME280;40076;52.354;4.970;2022-10-16T03:46:13;100929.53;;;13.77;99.51
54172;BME280;40076;52.354;4.970;2022-10-16T03:48:38;100934.50;;;13.75;99.50
54172;BME280;40076;52.354;4.970;2022-10-16T03:51:05;100927.47;;;13.74;100.00
54172;BME280;40076;52.354;4.970;2022-10-16T03:53:30;100936.41;;;13.74;99.88
54172;BME280;40076;52.354;4.970;2022-10-16T03:55:55;100939.50;;;13.73;100.00
54172;BME280;40076;52.354;4.970;2022-10-16T03:58:20;100936.00;;;13.72;100.00
54172;BME280;40076;52.354;4.970;2022-10-16T04:00:46;100942.53;;;13.71;100.00
54172;BME280;40076;52.354;4.970;2022-10-16T04:03:15;100937.44;;;13.70;100.00
54172;BME280;40076;52.354;4.970;2022-10-16T04:05:40;100951.03;;;13.70;100.00
54172;BME280;40076;52.354;4.970;2022-10-16T04:08:05;100963.81;;;13.69;100.00
54172;BME280;40076;52.354;4.970;2022-10-16T04:10:31;100951.03;;;13.70;100.00
54172;BME280;40076;52.354;4.970;2022-10-16T04:12:56;100956.44;;;13.70;100.00
54172;BME280;40076;52.354;4.970;2022-10-16T04:15:23;100960.75;;;13.71;100.00
54172;BME280;40076;52.354;4.970;2022-10-16T04:17:48;100963.00;;;13.69;100.00
54172;BME280;40076;52.354;4.970;2022-10-16T04:20:14;100970.03;;;13.70;100.00
54172;BME280;40076;52.354;4.970;2022-10-16T04:22:39;100976.25;;;13.70;100.00
54172;BME280;40076;52.354;4.970;2022-10-16T04:25:04;100981.22;;;13.68;100.00
54172;BME280;40076;52.354;4.970;2022-10-16T04:27:30;100977.72;;;13.68;100.00
54172;BME280;40076;52.354;4.970;2022-10-16T04:29:59;100972.28;;;13.68;100.00
54172;BME280;40076;52.354;4.970;2022-10-16T04:32:25;100975.78;;;13.68;100.00
54172;BME280;40076;52.354;4.970;2022-10-16T04:34:51;100975.00;;;13.68;100.00
54172;BME280;40076;52.354;4.970;2022-10-16T04:37:16;100975.31;;;13.66;100.00
54172;BME280;40076;52.354;4.970;2022-10-16T04:39:41;100981.56;;;13.67;100.00
54172;BME280;40076;52.354;4.970;2022-10-16T04:42:07;100976.13;;;13.67;100.00
54172;BME280;40076;52.354;4.970;2022-10-16T04:44:32;100985.06;;;13.67;100.00
54172;BME280;40076;52.354;4.970;2022-10-16T04:46:57;100990.06;;;13.65;100.00
54172;BME280;40076;52.354;4.970;2022-10-16T04:49:23;100991.97;;;13.65;100.00
54172;BME280;40076;52.354;4.970;2022-10-16T04:51:48;100985.75;;;13.64;100.00
54172;BME280;40076;52.354;4.970;2022-10-16T04:54:13;100993.53;;;13.66;100.00
54172;BME280;40076;52.354;4.970;2022-10-16T04:56:38;101000.44;;;13.63;100.00
54172;BME280;40076;52.354;4.970;2022-10-16T04:59:16;101023.41;;;13.66;100.00
54172;BME280;40076;52.354;4.970;2022-10-16T05:01:41;101027.28;;;13.65;100.00
54172;BME280;40076;52.354;4.970;2022-10-16T05:04:07;101034.63;;;13.64;100.00
54172;BME280;40076;52.354;4.970;2022-10-16T05:06:32;101041.66;;;13.65;100.00
54172;BME280;40076;52.354;4.970;2022-10-16T05:08:58;101045.13;;;13.66;100.00
54172;BME280;40076;52.354;4.970;2022-10-16T05:11:23;101039.69;;;13.66;100.00
54172;BME280;40076;52.354;4.970;2022-10-16T05:13:48;101049.66;;;13.62;100.00
54172;BME280;40076;52.354;4.970;2022-10-16T05:16:14;101046.59;;;13.63;100.00
54172;BME280;40076;52.354;4.970;2022-10-16T05:18:40;101049.66;;;13.62;100.00
54172;BME280;40076;52.354;4.970;2022-10-16T05:21:05;101044.22;;;13.62;100.00
54172;BME280;40076;52.354;4.970;2022-10-16T05:23:31;101053.50;;;13.61;100.00
54172;BME280;40076;52.354;4.970;2022-10-16T05:25:57;101056.53;;;13.59;100.00
54172;BME280;40076;52.354;4.970;2022-10-16T05:28:23;101052.69;;;13.60;100.00
54172;BME280;40076;52.354;4.970;2022-10-16T05:30:49;101052.22;;;13.58;100.00
54172;BME280;40076;52.354;4.970;2022-10-16T05:33:14;101057.66;;;13.58;100.00
54172;BME280;40076;52.354;4.970;2022-10-16T05:35:40;101063.09;;;13.58;100.00
54172;BME280;40076;52.354;4.970;2022-10-16T05:38:05;101064.25;;;13.57;100.00
54172;BME280;40076;52.354;4.970;2022-10-16T05:40:30;101069.66;;;13.57;100.00
54172;BME280;40076;52.354;4.970;2022-10-16T05:42:55;101082.44;;;13.57;100.00
54172;BME280;40076;52.354;4.970;2022-10-16T05:45:21;101092.19;;;13.58;100.00
54172;BME280;40076;52.354;4.970;2022-10-16T05:47:46;101089.47;;;13.58;100.00
54172;BME280;40076;52.354;4.970;2022-10-16T05:50:11;101084.38;;;13.56;100.00
54172;BME280;40076;52.354;4.970;2022-10-16T05:52:37;101099.53;;;13.57;100.00
54172;BME280;40076;52.354;4.970;2022-10-16T05:55:03;101096.03;;;13.57;100.00
54172;BME280;40076;52.354;4.970;2022-10-16T05:57:28;101097.47;;;13.54;100.00
54172;BME280;40076;52.354;4.970;2022-10-16T05:59:53;101093.63;;;13.55;100.00
54172;BME280;40076;52.354;4.970;2022-10-16T06:02:19;101093.63;;;13.55;100.00
54172;BME280;40076;52.354;4.970;2022-10-16T06:04:44;101095.22;;;13.56;100.00
54172;BME280;40076;52.354;4.970;2022-10-16T06:07:09;101082.31;;;13.53;100.00
54172;BME280;40076;52.354;4.970;2022-10-16T06:09:34;101093.97;;;13.53;100.00
54172;BME280;40076;52.354;4.970;2022-10-16T06:12:00;101091.72;;;13.56;100.00
54172;BME280;40076;52.354;4.970;2022-10-16T06:14:25;101082.78;;;13.55;100.00
54172;BME280;40076;52.354;4.970;2022-10-16T06:16:50;101088.53;;;13.53;100.00
54172;BME280;40076;52.354;4.970;2022-10-16T06:19:16;101095.56;;;13.55;100.00
54172;BME280;40076;52.354;4.970;2022-10-16T06:21:42;101092.03;;;13.54;100.00
54172;BME280;40076;52.354;4.970;2022-10-16T06:24:08;101095.88;;;13.53;100.00
54172;BME280;40076;52.354;4.970;2022-10-16T06:26:33;101100.50;;;13.52;100.00
54172;BME280;40076;52.354;4.970;2022-10-16T06:28:59;101104.03;;;13.53;100.00
54172;BME280;40076;52.354;4.970;2022-10-16T06:31:25;101117.59;;;13.53;100.00
54172;BME280;40076;52.354;4.970;2022-10-16T06:33:53;101119.19;;;13.54;100.00
54172;BME280;40076;52.354;4.970;2022-10-16T06:36:19;101112.16;;;13.53;100.00
54172;BME280;40076;52.354;4.970;2022-10-16T06:38:45;101128.47;;;13.53;100.00
54172;BME280;40076;52.354;4.970;2022-10-16T06:41:12;101130.84;;;13.55;100.00
54172;BME280;40076;52.354;4.970;2022-10-16T06:43:38;101131.66;;;13.55;100.00
54172;BME280;40076;52.354;4.970;2022-10-16T06:46:05;101133.25;;;13.56;100.00
54172;BME280;40076;52.354;4.970;2022-10-16T06:48:33;101135.16;;;13.56;100.00
54172;BME280;40076;52.354;4.970;2022-10-16T06:51:00;101143.78;;;13.58;100.00
54172;BME280;40076;52.354;4.970;2022-10-16T06:53:28;101149.53;;;13.56;100.00
54172;BME280;40076;52.354;4.970;2022-10-16T06:55:54;101146.13;;;13.59;100.00
54172;BME280;40076;52.354;4.970;2022-10-16T06:58:20;101149.19;;;13.58;100.00
54172;BME280;40076;52.354;4.970;2022-10-16T07:00:45;101156.66;;;13.61;100.00
54172;BME280;40076;52.354;4.970;2022-10-16T07:03:11;101165.28;;;13.63;100.00
54172;BME280;40076;52.354;4.970;2022-10-16T07:05:41;101161.31;;;13.60;100.00
54172;BME280;40076;52.354;4.970;2022-10-16T07:08:07;101177.59;;;13.60;100.00
54172;BME280;40076;52.354;4.970;2022-10-16T07:10:33;101179.19;;;13.61;100.00
54172;BME280;40076;52.354;4.970;2022-10-16T07:12:58;101183.03;;;13.60;100.00
54172;BME280;40076;52.354;4.970;2022-10-16T07:15:25;101188.78;;;13.59;100.00
54172;BME280;40076;52.354;4.970;2022-10-16T07:17:50;101180.63;;;13.59;100.00
54172;BME280;40076;52.354;4.970;2022-10-16T07:20:15;101200.78;;;13.58;100.00
54172;BME280;40076;52.354;4.970;2022-10-16T07:22:41;101207.78;;;13.59;100.00
54172;BME280;40076;52.354;4.970;2022-10-16T07:25:06;101217.09;;;13.58;100.00
54172;BME280;40076;52.354;4.970;2022-10-16T07:27:32;101225.66;;;13.60;100.00
54172;BME280;40076;52.354;4.970;2022-10-16T07:29:57;101222.97;;;13.60;100.00
54172;BME280;40076;52.354;4.970;2022-10-16T07:32:22;101227.59;;;13.59;100.00
54172;BME280;40076;52.354;4.970;2022-10-16T07:34:48;101233.81;;;13.60;100.00
54172;BME280;40076;52.354;4.970;2022-10-16T07:37:14;101230.31;;;13.59;100.00
54172;BME280;40076;52.354;4.970;2022-10-16T07:39:39;101239.72;;;13.62;100.00
54172;BME280;40076;52.354;4.970;2022-10-16T07:42:04;101244.84;;;13.63;100.00
54172;BME280;40076;52.354;4.970;2022-10-16T07:44:30;101254.91;;;13.63;100.00
54172;BME280;40076;52.354;4.970;2022-10-16T07:46:55;101253.44;;;13.65;100.00
54172;BME280;40076;52.354;4.970;2022-10-16T07:49:20;101255.81;;;13.67;100.00
54172;BME280;40076;52.354;4.970;2022-10-16T07:51:46;101255.81;;;13.67;100.00
54172;BME280;40076;52.354;4.970;2022-10-16T07:54:11;101273.38;;;13.69;100.00
54172;BME280;40076;52.354;4.970;2022-10-16T07:56:36;101263.78;;;13.72;100.00
54172;BME280;40076;52.354;4.970;2022-10-16T07:59:02;101263.44;;;13.73;100.00
54172;BME280;40076;52.354;4.970;2022-10-16T08:01:27;101270.94;;;13.76;100.00
54172;BME280;40076;52.354;4.970;2022-10-16T08:03:53;101280.03;;;13.80;100.00
54172;BME280;40076;52.354;4.970;2022-10-16T08:06:20;101275.84;;;13.83;100.00
54172;BME280;40076;52.354;4.970;2022-10-16T08:08:46;101289.09;;;13.84;100.00
54172;BME280;40076;52.354;4.970;2022-10-16T08:11:12;101301.25;;;13.87;100.00
54172;BME280;40076;52.354;4.970;2022-10-16T08:13:39;101294.69;;;13.88;100.00
54172;BME280;40076;52.354;4.970;2022-10-16T08:16:04;101302.97;;;13.91;100.00
54172;BME280;40076;52.354;4.970;2022-10-16T08:18:40;101296.41;;;13.93;100.00
54172;BME280;40076;52.354;4.970;2022-10-16T08:21:06;101299.25;;;13.96;100.00
54172;BME280;40076;52.354;4.970;2022-10-16T08:23:32;101310.25;;;14.00;100.00
54172;BME280;40076;52.354;4.970;2022-10-16T08:26:03;101306.41;;;14.01;100.00
54172;BME280;40076;52.354;4.970;2022-10-16T08:28:29;101310.84;;;14.05;100.00
54172;BME280;40076;52.354;4.970;2022-10-16T08:30:54;101310.19;;;14.08;100.00
54172;BME280;40076;52.354;4.970;2022-10-16T08:33:21;101310.69;;;14.10;100.00
54172;BME280;40076;52.354;4.970;2022-10-16T08:35:51;101324.06;;;14.15;100.00
54172;BME280;40076;52.354;4.970;2022-10-16T08:38:18;101324.66;;;14.21;100.00
54172;BME280;40076;52.354;4.970;2022-10-16T08:40:43;101320.50;;;14.23;100.00
54172;BME280;40076;52.354;4.970;2022-10-16T08:46:10;101344.88;;;14.32;100.00
54172;BME280;40076;52.354;4.970;2022-10-16T08:48:51;101340.69;;;14.35;100.00
54172;BME280;40076;52.354;4.970;2022-10-16T08:51:24;101347.91;;;14.39;100.00
54172;BME280;40076;52.354;4.970;2022-10-16T08:54:05;101349.28;;;14.45;100.00
54172;BME280;40076;52.354;4.970;2022-10-16T08:56:30;101366.53;;;14.49;100.00
54172;BME280;40076;52.354;4.970;2022-10-16T08:58:58;101364.28;;;14.51;100.00
54172;BME280;40076;52.354;4.970;2022-10-16T09:01:32;101368.59;;;14.52;100.00
54172;BME280;40076;52.354;4.970;2022-10-16T09:04:45;101374.59;;;14.58;100.00
54172;BME280;40076;52.354;4.970;2022-10-16T09:10:07;101384.19;;;14.64;100.00
54172;BME280;40076;52.354;4.970;2022-10-16T09:12:51;101383.97;;;14.69;100.00
54172;BME280;40076;52.354;4.970;2022-10-16T09:18:06;101390.00;;;14.75;100.00
54172;BME280;40076;52.354;4.970;2022-10-16T09:23:22;101406.25;;;14.83;100.00
54172;BME280;40076;52.354;4.970;2022-10-16T09:25:50;101394.03;;;14.89;100.00
54172;BME280;40076;52.354;4.970;2022-10-16T09:28:17;101403.94;;;14.94;100.00
54172;BME280;40076;52.354;4.970;2022-10-16T09:30:44;101401.00;;;14.99;100.00
54172;BME280;40076;52.354;4.970;2022-10-16T09:33:12;101415.19;;;15.04;100.00
54172;BME280;40076;52.354;4.970;2022-10-16T09:35:40;101408.28;;;15.07;100.00
54172;BME280;40076;52.354;4.970;2022-10-16T09:38:07;101405.34;;;15.12;100.00
54172;BME280;40076;52.354;4.970;2022-10-16T09:40:35;101416.84;;;15.18;100.00
54172;BME280;40076;52.354;4.970;2022-10-16T09:43:40;101414.69;;;15.23;100.00
54172;BME280;40076;52.354;4.970;2022-10-16T09:46:22;101413.56;;;15.24;100.00
54172;BME280;40076;52.354;4.970;2022-10-16T09:48:50;101424.47;;;15.24;100.00
54172;BME280;40076;52.354;4.970;2022-10-16T09:51:24;101415.16;;;15.25;100.00
54172;BME280;40076;52.354;4.970;2022-10-16T09:54:15;101417.88;;;15.25;100.00
54172;BME280;40076;52.354;4.970;2022-10-16T09:56:39;101417.19;;;15.28;100.00
54172;BME280;40076;52.354;4.970;2022-10-16T09:59:14;101423.44;;;15.29;100.00
54172;BME280;40076;52.354;4.970;2022-10-16T10:01:51;101419.25;;;15.31;100.00
54172;BME280;40076;52.354;4.970;2022-10-16T10:04:22;101425.59;;;15.35;100.00
54172;BME280;40076;52.354;4.970;2022-10-16T10:09:37;101424.38;;;15.45;100.00
54172;BME280;40076;52.354;4.970;2022-10-16T10:12:05;101434.72;;;15.52;99.78
54172;BME280;40076;52.354;4.970;2022-10-16T10:14:42;101433.31;;;15.54;98.90
54172;BME280;40076;52.354;4.970;2022-10-16T10:17:16;101432.59;;;15.57;98.83
54172;BME280;40076;52.354;4.970;2022-10-16T10:19:47;101432.75;;;15.61;98.63
54172;BME280;40076;52.354;4.970;2022-10-16T10:22:18;101432.41;;;15.62;98.38
54172;BME280;40076;52.354;4.970;2022-10-16T10:33:46;101450.81;;;15.77;92.89
54172;BME280;40076;52.354;4.970;2022-10-16T10:36:36;101456.38;;;15.81;91.81
54172;BME280;40076;52.354;4.970;2022-10-16T10:39:13;101461.97;;;15.85;90.76
54172;BME280;40076;52.354;4.970;2022-10-16T10:44:42;101460.72;;;15.94;89.62
54172;BME280;40076;52.354;4.970;2022-10-16T10:47:29;101465.94;;;15.99;87.00
54172;BME280;40076;52.354;4.970;2022-10-16T10:52:43;101473.22;;;16.07;83.50
54172;BME280;40076;52.354;4.970;2022-10-16T11:01:13;101481.16;;;16.12;82.65
54172;BME280;40076;52.354;4.970;2022-10-16T11:06:38;101485.25;;;16.18;82.68
54172;BME280;40076;52.354;4.970;2022-10-16T11:09:24;101483.44;;;16.23;81.06
54172;BME280;40076;52.354;4.970;2022-10-16T11:15:11;101491.84;;;16.30;80.32
54172;BME280;40076;52.354;4.970;2022-10-16T11:17:46;101491.06;;;16.29;79.04
54172;BME280;40076;52.354;4.970;2022-10-16T11:20:13;101490.38;;;16.32;79.35
54172;BME280;40076;52.354;4.970;2022-10-16T11:22:47;101493.22;;;16.36;79.22
54172;BME280;40076;52.354;4.970;2022-10-16T11:25:26;101505.03;;;16.40;78.46
54172;BME280;40076;52.354;4.970;2022-10-16T11:28:03;101496.16;;;16.43;77.72
54172;BME280;40076;52.354;4.970;2022-10-16T11:30:33;101514.25;;;16.47;76.91
54172;BME280;40076;52.354;4.970;2022-10-16T11:36:22;101505.38;;;16.50;71.57
54172;BME280;40076;52.354;4.970;2022-10-16T11:46:32;101519.00;;;16.50;68.09
54172;BME280;40076;52.354;4.970;2022-10-16T11:49:08;101516.75;;;16.52;67.88
54172;BME280;40076;52.354;4.970;2022-10-16T11:51:45;101509.34;;;16.53;66.96
54172;BME280;40076;52.354;4.970;2022-10-16T11:57:12;101515.50;;;16.62;66.72
54172;BME280;40076;52.354;4.970;2022-10-16T12:02:26;101531.31;;;16.69;65.57
54172;BME280;40076;52.354;4.970;2022-10-16T12:07:56;101528.78;;;16.76;64.47
54172;BME280;40076;52.354;4.970;2022-10-16T12:10:28;101538.56;;;16.77;64.06
54172;BME280;40076;52.354;4.970;2022-10-16T12:12:54;101539.81;;;16.79;63.90
54172;BME280;40076;52.354;4.970;2022-10-16T12:17:45;101545.06;;;16.84;63.25
54172;BME280;40076;52.354;4.970;2022-10-16T12:22:41;101546.66;;;16.85;62.32
54172;BME280;40076;52.354;4.970;2022-10-16T12:25:21;101544.34;;;16.87;62.52
54172;BME280;40076;52.354;4.970;2022-10-16T12:27:55;101559.25;;;16.90;62.18
54172;BME280;40076;52.354;4.970;2022-10-16T12:30:23;101566.31;;;16.91;60.62
54172;BME280;40076;52.354;4.970;2022-10-16T12:33:01;101556.19;;;16.91;59.24
54172;BME280;40076;52.354;4.970;2022-10-16T12:35:30;101553.13;;;16.93;58.53
54172;BME280;40076;52.354;4.970;2022-10-16T12:41:08;101558.22;;;16.94;57.55
54172;BME280;40076;52.354;4.970;2022-10-16T12:46:05;101556.72;;;16.97;57.78
54172;BME280;40076;52.354;4.970;2022-10-16T12:48:31;101554.47;;;16.99;57.84
54172;BME280;40076;52.354;4.970;2022-10-16T12:50:56;101558.78;;;17.00;58.02
54172;BME280;40076;52.354;4.970;2022-10-16T12:53:26;101556.06;;;17.00;58.22
54172;BME280;40076;52.354;4.970;2022-10-16T12:56:17;101565.13;;;17.04;58.85
54172;BME280;40076;52.354;4.970;2022-10-16T13:01:42;101566.72;;;17.05;58.82
54172;BME280;40076;52.354;4.970;2022-10-16T13:04:20;101566.72;;;17.05;58.14
54172;BME280;40076;52.354;4.970;2022-10-16T13:12:52;101564.47;;;17.07;58.10
54172;BME280;40076;52.354;4.970;2022-10-16T13:18:19;101566.06;;;17.08;57.25
54172;BME280;40076;52.354;4.970;2022-10-16T13:21:16;101579.72;;;17.08;57.07
54172;BME280;40076;52.354;4.970;2022-10-16T13:29:51;101577.78;;;17.09;57.17
54172;BME280;40076;52.354;4.970;2022-10-16T13:32:19;101587.44;;;17.06;58.03
54172;BME280;40076;52.354;4.970;2022-10-16T13:34:46;101596.44;;;17.07;58.27
54172;BME280;40076;52.354;4.970;2022-10-16T13:37:22;101585.16;;;17.08;58.29
54172;BME280;40076;52.354;4.970;2022-10-16T13:39:48;101596.53;;;17.10;58.34
54172;BME280;40076;52.354;4.970;2022-10-16T13:42:23;101609.38;;;17.10;58.51
54172;BME280;40076;52.354;4.970;2022-10-16T13:44:52;101613.69;;;17.11;58.62
54172;BME280;40076;52.354;4.970;2022-10-16T13:47:20;101607.00;;;17.08;58.46
54172;BME280;40076;52.354;4.970;2022-10-16T13:49:47;101613.28;;;17.09;58.53
54172;BME280;40076;52.354;4.970;2022-10-16T13:52:23;101614.41;;;17.08;59.00
54172;BME280;40076;52.354;4.970;2022-10-16T13:54:48;101618.38;;;17.10;59.15
54172;BME280;40076;52.354;4.970;2022-10-16T13:57:14;101612.91;;;17.10;58.81
54172;BME280;40076;52.354;4.970;2022-10-16T13:59:40;101603.91;;;17.10;58.90
54172;BME280;40076;52.354;4.970;2022-10-16T14:04:44;101610.53;;;17.09;58.75
54172;BME280;40076;52.354;4.970;2022-10-16T14:07:14;101615.63;;;17.10;58.50
54172;BME280;40076;52.354;4.970;2022-10-16T14:09:48;101623.03;;;17.10;58.30
54172;BME280;40076;52.354;4.970;2022-10-16T14:12:15;101619.50;;;17.09;58.45
54172;BME280;40076;52.354;4.970;2022-10-16T14:14:43;101615.63;;;17.10;58.36
54172;BME280;40076;52.354;4.970;2022-10-16T14:17:22;101618.38;;;17.10;58.20
54172;BME280;40076;52.354;4.970;2022-10-16T14:19:50;101611.31;;;17.09;58.06
54172;BME280;40076;52.354;4.970;2022-10-16T14:24:51;101617.13;;;17.08;58.05
54172;BME280;40076;52.354;4.970;2022-10-16T14:30:08;101624.53;;;17.07;58.43
54172;BME280;40076;52.354;4.970;2022-10-16T14:32:34;101622.59;;;17.08;58.29
54172;BME280;40076;52.354;4.970;2022-10-16T14:35:00;101625.31;;;17.08;58.45
54172;BME280;40076;52.354;4.970;2022-10-16T14:37:27;101615.53;;;17.07;58.03
54172;BME280;40076;52.354;4.970;2022-10-16T14:39:54;101605.75;;;17.06;57.96